sensor_id;sensor_type;location;lat;lon;timestamp;pressure;altitude;pressure_sealevel;temperature;humidity
41102;BME280;26845;50.190;19.178;2023-11-19T00:00:38;99176.93;;;2.81;92.47
41102;BME280;26845;50.190;19.178;2023-11-19T00:03:04;99177.54;;;2.81;92.36
41102;BME280;26845;50.190;19.178;2023-11-19T00:05:31;99178.96;;;2.81;92.29
41102;BME280;26845;50.190;19.178;2023-11-19T00:07:57;99177.05;;;2.82;92.46
41102;BME280;26845;50.190;19.178;2023-11-19T00:10:23;99181.75;;;2.81;92.41
41102;BME280;26845;50.190;19.178;2023-11-19T00:12:49;99184.71;;;2.80;92.32
41102;BME280;26845;50.190;19.178;2023-11-19T00:15:16;99176.08;;;2.80;92.43
41102;BME280;26845;50.190;19.178;2023-11-19T00:17:46;99172.70;;;2.81;92.39
41102;BME280;26845;50.190;19.178;2023-11-19T00:20:16;99169.39;;;2.81;92.42
41102;BME280;26845;50.190;19.178;2023-11-19T00:22:42;99167.14;;;2.80;92.27
41102;BME280;26845;50.190;19.178;2023-11-19T00:25:08;99160.34;;;2.80;92.32
41102;BME280;26845;50.190;19.178;2023-11-19T00:27:35;99161.64;;;2.79;91.81
41102;BME280;26845;50.190;19.178;2023-11-19T00:30:01;99161.61;;;2.72;91.90
41102;BME280;26845;50.190;19.178;2023-11-19T00:32:27;99153.95;;;2.74;92.16
41102;BME280;26845;50.190;19.178;2023-11-19T00:34:53;99147.61;;;2.76;92.27
41102;BME280;26845;50.190;19.178;2023-11-19T00:37:19;99153.66;;;2.78;91.94
41102;BME280;26845;50.190;19.178;2023-11-19T00:39:45;99150.64;;;2.72;91.81
41102;BME280;26845;50.190;19.178;2023-11-19T00:42:12;99155.74;;;2.63;91.49
41102;BME280;26845;50.190;19.178;2023-11-19T00:44:38;99151.89;;;2.48;91.24
41102;BME280;26845;50.190;19.178;2023-11-19T00:47:04;99154.02;;;2.44;91.54
41102;BME280;26845;50.190;19.178;2023-11-19T00:49:30;99153.24;;;2.42;91.38
41102;BME280;26845;50.190;19.178;2023-11-19T00:51:58;99151.98;;;2.39;91.55
41102;BME280;26845;50.190;19.178;2023-11-19T00:54:25;99138.61;;;2.39;91.73
41102;BME280;26845;50.190;19.178;2023-11-19T00:56:54;99143.23;;;2.35;91.51
41102;BME280;26845;50.190;19.178;2023-11-19T00:59:20;99145.39;;;2.24;91.09
41102;BME280;26845;50.190;19.178;2023-11-19T01:01:46;99150.36;;;2.08;90.82
41102;BME280;26845;50.190;19.178;2023-11-19T01:04:14;99151.80;;;1.99;91.07
41102;BME280;26845;50.190;19.178;2023-11-19T01:06:40;99148.20;;;1.90;91.05
41102;BME280;26845;50.190;19.178;2023-11-19T01:09:07;99149.50;;;1.82;91.04
41102;BME280;26845;50.190;19.178;2023-11-19T01:11:33;99148.50;;;1.80;91.54
41102;BME280;26845;50.190;19.178;2023-11-19T01:14:00;99147.85;;;1.84;91.60
41102;BME280;26845;50.190;19.178;2023-11-19T01:16:26;99147.70;;;1.89;91.77
41102;BME280;26845;50.190;19.178;2023-11-19T01:18:55;99149.24;;;1.97;91.85
41102;BME280;26845;50.190;19.178;2023-11-19T01:21:22;99140.80;;;2.01;91.79
41102;BME280;26845;50.190;19.178;2023-11-19T01:23:48;99137.48;;;2.04;91.66
41102;BME280;26845;50.190;19.178;2023-11-19T01:26:14;99136.06;;;1.89;90.79
41102;BME280;26845;50.190;19.178;2023-11-19T01:28:40;99128.95;;;1.70;90.80
41102;BME280;26845;50.190;19.178;2023-11-19T01:31:11;99121.56;;;1.62;90.99
41102;BME280;26845;50.190;19.178;2023-11-19T01:33:38;99122.51;;;1.61;91.42
41102;BME280;26845;50.190;19.178;2023-11-19T01:36:04;99111.00;;;1.68;91.99
41102;BME280;26845;50.190;19.178;2023-11-19T01:38:30;99112.76;;;1.80;92.16
41102;BME280;26845;50.190;19.178;2023-11-19T01:40:58;99105.20;;;1.88;92.35
41102;BME280;26845;50.190;19.178;2023-11-19T01:43:31;99098.19;;;1.97;92.28
41102;BME280;26845;50.190;19.178;2023-11-19T01:46:04;99096.63;;;2.03;92.17
41102;BME280;26845;50.190;19.178;2023-11-19T01:48:34;99101.98;;;2.07;92.13
41102;BME280;26845;50.190;19.178;2023-11-19T01:51:01;99100.25;;;2.12;92.03
41102;BME280;26845;50.190;19.178;2023-11-19T01:53:27;99089.63;;;2.17;92.01
41102;BME280;26845;50.190;19.178;2023-11-19T01:55:54;99077.10;;;2.21;92.10
41102;BME280;26845;50.190;19.178;2023-11-19T01:58:20;99071.93;;;2.23;92.07
41102;BME280;26845;50.190;19.178;2023-11-19T02:00:47;99068.49;;;2.25;91.93
41102;BME280;26845;50.190;19.178;2023-11-19T02:03:13;99065.49;;;2.27;91.81
41102;BME280;26845;50.190;19.178;2023-11-19T02:05:39;99056.84;;;2.29;91.96
41102;BME280;26845;50.190;19.178;2023-11-19T02:08:05;99050.04;;;2.27;91.92
41102;BME280;26845;50.190;19.178;2023-11-19T02:10:31;99053.59;;;2.27;91.94
41102;BME280;26845;50.190;19.178;2023-11-19T02:12:58;99042.39;;;2.26;92.07
41102;BME280;26845;50.190;19.178;2023-11-19T02:15:24;99037.02;;;2.25;91.99
41102;BME280;26845;50.190;19.178;2023-11-19T02:17:50;99031.13;;;2.24;92.02
41102;BME280;26845;50.190;19.178;2023-11-19T02:20:16;99022.23;;;2.23;92.05
41102;BME280;26845;50.190;19.178;2023-11-19T02:22:45;99016.06;;;2.24;92.15
41102;BME280;26845;50.190;19.178;2023-11-19T02:25:15;99015.72;;;2.25;92.12
41102;BME280;26845;50.190;19.178;2023-11-19T02:27:52;99004.64;;;2.24;92.03
41102;BME280;26845;50.190;19.178;2023-11-19T02:30:20;98997.79;;;2.26;91.88
41102;BME280;26845;50.190;19.178;2023-11-19T02:32:46;98988.29;;;2.24;91.83
41102;BME280;26845;50.190;19.178;2023-11-19T02:35:13;98979.81;;;2.22;91.69
41102;BME280;26845;50.190;19.178;2023-11-19T02:37:39;98965.50;;;2.16;91.53
41102;BME280;26845;50.190;19.178;2023-11-19T02:40:06;98966.80;;;2.09;91.36
41102;BME280;26845;50.190;19.178;2023-11-19T02:42:34;98963.54;;;2.02;91.42
41102;BME280;26845;50.190;19.178;2023-11-19T02:45:00;98961.14;;;1.97;91.37
41102;BME280;26845;50.190;19.178;2023-11-19T02:47:26;98967.29;;;1.91;91.39
41102;BME280;26845;50.190;19.178;2023-11-19T02:49:53;98954.95;;;1.85;91.34
41102;BME280;26845;50.190;19.178;2023-11-19T02:52:19;98941.19;;;1.80;91.20
41102;BME280;26845;50.190;19.178;2023-11-19T02:54:45;98928.73;;;1.73;91.14
41102;BME280;26845;50.190;19.178;2023-11-19T02:57:11;98924.23;;;1.69;91.18
41102;BME280;26845;50.190;19.178;2023-11-19T02:59:38;98930.55;;;1.66;91.28
41102;BME280;26845;50.190;19.178;2023-11-19T03:02:05;98938.29;;;1.61;91.17
41102;BME280;26845;50.190;19.178;2023-11-19T03:04:36;98934.48;;;1.56;91.21
41102;BME280;26845;50.190;19.178;2023-11-19T03:07:05;98923.91;;;1.51;91.14
41102;BME280;26845;50.190;19.178;2023-11-19T03:09:31;98920.35;;;1.46;91.10
41102;BME280;26845;50.190;19.178;2023-11-19T03:11:57;98919.56;;;1.42;91.24
41102;BME280;26845;50.190;19.178;2023-11-19T03:14:23;98924.41;;;1.35;90.95
41102;BME280;26845;50.190;19.178;2023-11-19T03:16:49;98915.90;;;1.25;90.98
41102;BME280;26845;50.190;19.178;2023-11-19T03:19:16;98911.47;;;1.21;91.15
41102;BME280;26845;50.190;19.178;2023-11-19T03:21:44;98913.90;;;1.19;91.25
41102;BME280;26845;50.190;19.178;2023-11-19T03:24:13;98907.94;;;1.15;91.31
41102;BME280;26845;50.190;19.178;2023-11-19T03:26:39;98908.73;;;1.10;91.30
41102;BME280;26845;50.190;19.178;2023-11-19T03:29:05;98907.25;;;0.98;90.75
41102;BME280;26845;50.190;19.178;2023-11-19T03:31:32;98906.16;;;0.83;90.80
41102;BME280;26845;50.190;19.178;2023-11-19T03:33:58;98898.13;;;0.76;91.22
41102;BME280;26845;50.190;19.178;2023-11-19T03:36:24;98890.83;;;0.78;91.54
41102;BME280;26845;50.190;19.178;2023-11-19T03:38:50;98883.10;;;0.81;91.53
41102;BME280;26845;50.190;19.178;2023-11-19T03:41:16;98892.73;;;0.78;91.45
41102;BME280;26845;50.190;19.178;2023-11-19T03:43:42;98887.73;;;0.72;91.33
41102;BME280;26845;50.190;19.178;2023-11-19T03:46:21;98887.75;;;0.69;91.45
41102;BME280;26845;50.190;19.178;2023-11-19T03:48:47;98890.38;;;0.69;91.54
41102;BME280;26845;50.190;19.178;2023-11-19T03:51:13;98878.73;;;0.71;91.69
41102;BME280;26845;50.190;19.178;2023-11-19T03:53:46;98851.21;;;0.74;91.78
41102;BME280;26845;50.190;19.178;2023-11-19T03:56:12;98837.21;;;0.71;91.64
41102;BME280;26845;50.190;19.178;2023-11-19T03:58:38;98841.38;;;0.68;91.73
41102;BME280;26845;50.190;19.178;2023-11-19T04:01:05;98837.31;;;0.66;91.71
41102;BME280;26845;50.190;19.178;2023-11-19T04:03:31;98829.21;;;0.65;91.83
41102;BME280;26845;50.190;19.178;2023-11-19T04:05:57;98822.27;;;0.66;91.87
41102;BME280;26845;50.190;19.178;2023-11-19T04:08:24;98822.23;;;0.64;91.74
41102;BME280;26845;50.190;19.178;2023-11-19T04:10:50;98816.46;;;0.62;91.95
41102;BME280;26845;50.190;19.178;2023-11-19T04:13:16;98809.61;;;0.62;91.92
41102;BME280;26845;50.190;19.178;2023-11-19T04:15:42;98808.13;;;0.60;92.04
41102;BME280;26845;50.190;19.178;2023-11-19T04:18:08;98803.98;;;0.61;92.00
41102;BME280;26845;50.190;19.178;2023-11-19T04:20:35;98802.12;;;0.62;92.03
41102;BME280;26845;50.190;19.178;2023-11-19T04:23:02;98809.95;;;0.62;92.00
41102;BME280;26845;50.190;19.178;2023-11-19T04:25:28;98815.27;;;0.58;91.65
41102;BME280;26845;50.190;19.178;2023-11-19T04:27:54;98811.59;;;0.54;92.02
41102;BME280;26845;50.190;19.178;2023-11-19T04:30:21;98805.67;;;0.55;91.95
41102;BME280;26845;50.190;19.178;2023-11-19T04:32:47;98803.63;;;0.56;91.91
41102;BME280;26845;50.190;19.178;2023-11-19T04:35:14;98804.92;;;0.55;91.95
41102;BME280;26845;50.190;19.178;2023-11-19T04:37:41;98805.52;;;0.50;91.90
41102;BME280;26845;50.190;19.178;2023-11-19T04:40:07;98799.02;;;0.48;91.95
41102;BME280;26845;50.190;19.178;2023-11-19T04:42:33;98789.70;;;0.47;91.97
41102;BME280;26845;50.190;19.178;2023-11-19T04:44:59;98784.73;;;0.47;92.22
41102;BME280;26845;50.190;19.178;2023-11-19T04:47:25;98784.69;;;0.47;92.22
41102;BME280;26845;50.190;19.178;2023-11-19T04:49:51;98779.22;;;0.47;91.97
41102;BME280;26845;50.190;19.178;2023-11-19T04:52:17;98785.43;;;0.46;92.06
41102;BME280;26845;50.190;19.178;2023-11-19T04:54:43;98786.49;;;0.43;92.06
41102;BME280;26845;50.190;19.178;2023-11-19T04:57:09;98788.59;;;0.41;92.13
41102;BME280;26845;50.190;19.178;2023-11-19T04:59:36;98786.42;;;0.43;92.40
41102;BME280;26845;50.190;19.178;2023-11-19T05:02:02;98778.84;;;0.47;92.52
41102;BME280;26845;50.190;19.178;2023-11-19T05:04:30;98774.84;;;0.51;92.52
41102;BME280;26845;50.190;19.178;2023-11-19T05:06:56;98774.21;;;0.53;92.55
41102;BME280;26845;50.190;19.178;2023-11-19T05:09:22;98773.04;;;0.56;92.59
41102;BME280;26845;50.190;19.178;2023-11-19T05:11:48;98773.63;;;0.58;92.44
41102;BME280;26845;50.190;19.178;2023-11-19T05:14:14;98770.88;;;0.58;92.27
41102;BME280;26845;50.190;19.178;2023-11-19T05:16:40;98770.00;;;0.50;92.15
41102;BME280;26845;50.190;19.178;2023-11-19T05:19:07;98776.63;;;0.45;92.18
41102;BME280;26845;50.190;19.178;2023-11-19T05:21:33;98766.98;;;0.45;92.49
41102;BME280;26845;50.190;19.178;2023-11-19T05:24:00;98766.59;;;0.48;92.70
41102;BME280;26845;50.190;19.178;2023-11-19T05:26:26;98754.52;;;0.52;92.63
41102;BME280;26845;50.190;19.178;2023-11-19T05:28:52;98748.28;;;0.53;92.84
41102;BME280;26845;50.190;19.178;2023-11-19T05:31:18;98730.30;;;0.55;92.78
41102;BME280;26845;50.190;19.178;2023-11-19T05:33:44;98721.93;;;0.59;92.86
41102;BME280;26845;50.190;19.178;2023-11-19T05:36:11;98721.10;;;0.62;92.71
41102;BME280;26845;50.190;19.178;2023-11-19T05:38:38;98709.14;;;0.59;92.82
41102;BME280;26845;50.190;19.178;2023-11-19T05:41:04;98709.78;;;0.58;92.73
41102;BME280;26845;50.190;19.178;2023-11-19T05:43:31;98705.02;;;0.58;92.72
41102;BME280;26845;50.190;19.178;2023-11-19T05:45:57;98699.36;;;0.56;92.86
41102;BME280;26845;50.190;19.178;2023-11-19T05:48:24;98700.21;;;0.54;92.72
41102;BME280;26845;50.190;19.178;2023-11-19T05:50:50;98696.38;;;0.53;92.79
41102;BME280;26845;50.190;19.178;2023-11-19T05:53:16;98702.77;;;0.52;92.87
41102;BME280;26845;50.190;19.178;2023-11-19T05:55:42;98709.52;;;0.51;92.68
41102;BME280;26845;50.190;19.178;2023-11-19T05:58:23;98707.08;;;0.48;92.62
41102;BME280;26845;50.190;19.178;2023-11-19T06:00:50;98707.64;;;0.45;92.52
41102;BME280;26845;50.190;19.178;2023-11-19T06:03:16;98710.85;;;0.47;92.90
41102;BME280;26845;50.190;19.178;2023-11-19T06:05:44;98718.40;;;0.48;92.63
41102;BME280;26845;50.190;19.178;2023-11-19T06:08:10;98720.45;;;0.37;92.35
41102;BME280;26845;50.190;19.178;2023-11-19T06:10:36;98720.35;;;0.10;92.10
41102;BME280;26845;50.190;19.178;2023-11-19T06:13:04;98724.91;;;-0.06;92.22
41102;BME280;26845;50.190;19.178;2023-11-19T06:15:30;98722.29;;;-0.20;92.54
41102;BME280;26845;50.190;19.178;2023-11-19T06:17:57;98715.11;;;-0.24;92.69
41102;BME280;26845;50.190;19.178;2023-11-19T06:20:26;98714.80;;;-0.19;93.29
41102;BME280;26845;50.190;19.178;2023-11-19T06:22:52;98714.73;;;-0.10;93.77
41102;BME280;26845;50.190;19.178;2023-11-19T06:25:19;98715.42;;;0.04;93.63
41102;BME280;26845;50.190;19.178;2023-11-19T06:27:45;98718.41;;;0.12;93.64
41102;BME280;26845;50.190;19.178;2023-11-19T06:30:11;98712.90;;;0.17;93.90
41102;BME280;26845;50.190;19.178;2023-11-19T06:32:38;98707.64;;;0.25;93.94
41102;BME280;26845;50.190;19.178;2023-11-19T06:35:05;98698.21;;;0.34;94.11
41102;BME280;26845;50.190;19.178;2023-11-19T06:37:31;98689.38;;;0.41;94.02
41102;BME280;26845;50.190;19.178;2023-11-19T06:39:57;98684.84;;;0.49;94.24
41102;BME280;26845;50.190;19.178;2023-11-19T06:42:23;98672.42;;;0.53;93.93
41102;BME280;26845;50.190;19.178;2023-11-19T06:44:49;98668.15;;;0.53;93.86
41102;BME280;26845;50.190;19.178;2023-11-19T06:47:15;98658.98;;;0.54;93.99
41102;BME280;26845;50.190;19.178;2023-11-19T06:49:43;98654.65;;;0.57;94.25
41102;BME280;26845;50.190;19.178;2023-11-19T06:52:09;98647.29;;;0.64;94.58
41102;BME280;26845;50.190;19.178;2023-11-19T06:54:35;98643.64;;;0.72;94.68
41102;BME280;26845;50.190;19.178;2023-11-19T06:57:01;98652.73;;;0.76;94.60
41102;BME280;26845;50.190;19.178;2023-11-19T06:59:28;98644.46;;;0.82;94.77
41102;BME280;26845;50.190;19.178;2023-11-19T07:01:54;98640.64;;;0.88;94.92
41102;BME280;26845;50.190;19.178;2023-11-19T07:04:21;98639.43;;;0.98;94.96
41102;BME280;26845;50.190;19.178;2023-11-19T07:06:47;98632.36;;;1.03;94.89
41102;BME280;26845;50.190;19.178;2023-11-19T07:09:14;98635.80;;;1.07;95.10
41102;BME280;26845;50.190;19.178;2023-11-19T07:11:40;98639.30;;;1.13;95.06
41102;BME280;26845;50.190;19.178;2023-11-19T07:14:07;98640.11;;;1.17;95.08
41102;BME280;26845;50.190;19.178;2023-11-19T07:16:34;98650.66;;;1.21;95.27
41102;BME280;26845;50.190;19.178;2023-11-19T07:19:02;98646.98;;;1.29;95.41
41102;BME280;26845;50.190;19.178;2023-11-19T07:21:28;98635.11;;;1.34;95.34
41102;BME280;26845;50.190;19.178;2023-11-19T07:23:54;98626.58;;;1.42;95.54
41102;BME280;26845;50.190;19.178;2023-11-19T07:26:20;98630.19;;;1.47;95.60
41102;BME280;26845;50.190;19.178;2023-11-19T07:28:47;98626.79;;;1.46;95.38
41102;BME280;26845;50.190;19.178;2023-11-19T07:31:13;98627.90;;;1.47;95.57
41102;BME280;26845;50.190;19.178;2023-11-19T07:33:39;98628.59;;;1.55;95.59
41102;BME280;26845;50.190;19.178;2023-11-19T07:36:08;98625.15;;;1.63;95.71
41102;BME280;26845;50.190;19.178;2023-11-19T07:38:34;98628.75;;;1.68;95.54
41102;BME280;26845;50.190;19.178;2023-11-19T07:41:00;98622.54;;;1.72;95.57
41102;BME280;26845;50.190;19.178;2023-11-19T07:43:26;98621.98;;;1.73;95.46
41102;BME280;26845;50.190;19.178;2023-11-19T07:45:52;98617.33;;;1.72;95.38
41102;BME280;26845;50.190;19.178;2023-11-19T07:48:18;98621.12;;;1.74;95.63
41102;BME280;26845;50.190;19.178;2023-11-19T07:50:49;98617.42;;;1.79;95.80
41102;BME280;26845;50.190;19.178;2023-11-19T07:53:17;98605.94;;;1.84;95.59
41102;BME280;26845;50.190;19.178;2023-11-19T07:55:44;98591.50;;;1.89;95.63
41102;BME280;26845;50.190;19.178;2023-11-19T07:58:10;98599.15;;;1.93;96.06
41102;BME280;26845;50.190;19.178;2023-11-19T08:00:36;98586.77;;;1.97;95.81
41102;BME280;26845;50.190;19.178;2023-11-19T08:03:03;98575.52;;;2.00;95.76
41102;BME280;26845;50.190;19.178;2023-11-19T08:05:30;98553.54;;;2.04;95.73
41102;BME280;26845;50.190;19.178;2023-11-19T08:07:56;98548.10;;;2.07;95.78
41102;BME280;26845;50.190;19.178;2023-11-19T08:10:22;98548.68;;;2.11;95.81
41102;BME280;26845;50.190;19.178;2023-11-19T08:12:48;98548.27;;;2.15;95.85
41102;BME280;26845;50.190;19.178;2023-11-19T08:15:15;98543.83;;;2.19;95.80
41102;BME280;26845;50.190;19.178;2023-11-19T08:17:41;98536.89;;;2.22;95.90
41102;BME280;26845;50.190;19.178;2023-11-19T08:20:08;98532.34;;;2.24;95.84
41102;BME280;26845;50.190;19.178;2023-11-19T08:22:38;98540.02;;;2.26;95.61
41102;BME280;26845;50.190;19.178;2023-11-19T08:25:05;98542.70;;;2.26;95.55
41102;BME280;26845;50.190;19.178;2023-11-19T08:27:32;98539.69;;;2.26;95.72
41102;BME280;26845;50.190;19.178;2023-11-19T08:29:58;98537.42;;;2.33;95.92
41102;BME280;26845;50.190;19.178;2023-11-19T08:32:24;98538.64;;;2.40;96.07
41102;BME280;26845;50.190;19.178;2023-11-19T08:34:50;98534.70;;;2.44;95.84
41102;BME280;26845;50.190;19.178;2023-11-19T08:37:16;98539.11;;;2.50;95.93
41102;BME280;26845;50.190;19.178;2023-11-19T08:39:46;98536.71;;;2.55;95.88
41102;BME280;26845;50.190;19.178;2023-11-19T08:42:11;98527.66;;;2.62;95.70
41102;BME280;26845;50.190;19.178;2023-11-19T08:44:38;98522.35;;;2.60;95.42
41102;BME280;26845;50.190;19.178;2023-11-19T08:47:04;98514.76;;;2.54;95.24
41102;BME280;26845;50.190;19.178;2023-11-19T08:49:30;98525.45;;;2.56;95.47
41102;BME280;26845;50.190;19.178;2023-11-19T08:51:56;98527.16;;;2.60;95.80
41102;BME280;26845;50.190;19.178;2023-11-19T08:54:22;98520.33;;;2.64;95.66
41102;BME280;26845;50.190;19.178;2023-11-19T08:56:48;98521.63;;;2.66;95.59
41102;BME280;26845;50.190;19.178;2023-11-19T08:59:14;98517.03;;;2.71;95.59
41102;BME280;26845;50.190;19.178;2023-11-19T09:01:40;98509.84;;;2.77;95.63
41102;BME280;26845;50.190;19.178;2023-11-19T09:04:07;98510.27;;;2.83;95.46
41102;BME280;26845;50.190;19.178;2023-11-19T09:06:33;98501.08;;;2.88;95.42
41102;BME280;26845;50.190;19.178;2023-11-19T09:08:59;98497.55;;;2.91;95.29
41102;BME280;26845;50.190;19.178;2023-11-19T09:11:28;98486.14;;;2.95;95.39
41102;BME280;26845;50.190;19.178;2023-11-19T09:13:54;98484.11;;;2.99;95.55
41102;BME280;26845;50.190;19.178;2023-11-19T09:16:20;98467.86;;;3.02;95.15
41102;BME280;26845;50.190;19.178;2023-11-19T09:18:46;98455.77;;;3.02;95.14
41102;BME280;26845;50.190;19.178;2023-11-19T09:21:13;98444.13;;;2.99;94.93
41102;BME280;26845;50.190;19.178;2023-11-19T09:23:39;98448.53;;;2.97;94.90
41102;BME280;26845;50.190;19.178;2023-11-19T09:26:05;98454.45;;;2.97;94.82
41102;BME280;26845;50.190;19.178;2023-11-19T09:28:31;98454.67;;;2.93;94.59
41102;BME280;26845;50.190;19.178;2023-11-19T09:30:57;98461.98;;;2.91;94.33
41102;BME280;26845;50.190;19.178;2023-11-19T09:33:24;98459.17;;;2.93;94.66
41102;BME280;26845;50.190;19.178;2023-11-19T09:35:50;98458.63;;;2.98;94.60
41102;BME280;26845;50.190;19.178;2023-11-19T09:38:16;98445.79;;;2.97;94.40
41102;BME280;26845;50.190;19.178;2023-11-19T09:40:42;98441.06;;;2.93;94.14
41102;BME280;26845;50.190;19.178;2023-11-19T09:43:09;98443.54;;;2.92;94.33
41102;BME280;26845;50.190;19.178;2023-11-19T09:45:47;98438.38;;;2.93;94.34
41102;BME280;26845;50.190;19.178;2023-11-19T09:48:14;98435.02;;;2.98;94.60
41102;BME280;26845;50.190;19.178;2023-11-19T09:50:42;98418.20;;;3.06;94.70
41102;BME280;26845;50.190;19.178;2023-11-19T09:53:08;98404.35;;;3.10;94.51
41102;BME280;26845;50.190;19.178;2023-11-19T09:55:34;98402.42;;;3.16;94.83
41102;BME280;26845;50.190;19.178;2023-11-19T09:58:00;98391.09;;;3.23;94.74
41102;BME280;26845;50.190;19.178;2023-11-19T10:00:27;98388.27;;;3.28;94.36
41102;BME280;26845;50.190;19.178;2023-11-19T10:02:54;98382.11;;;3.29;94.13
41102;BME280;26845;50.190;19.178;2023-11-19T10:05:20;98381.85;;;3.28;93.96
41102;BME280;26845;50.190;19.178;2023-11-19T10:07:47;98375.38;;;3.26;93.94
41102;BME280;26845;50.190;19.178;2023-11-19T10:10:15;98360.05;;;3.29;94.24
41102;BME280;26845;50.190;19.178;2023-11-19T10:12:44;98356.98;;;3.35;94.48
41102;BME280;26845;50.190;19.178;2023-11-19T10:15:12;98347.83;;;3.44;94.67
41102;BME280;26845;50.190;19.178;2023-11-19T10:17:42;98346.90;;;3.55;94.63
41102;BME280;26845;50.190;19.178;2023-11-19T10:20:08;98336.27;;;3.66;94.22
41102;BME280;26845;50.190;19.178;2023-11-19T10:22:45;98325.80;;;3.76;94.31
41102;BME280;26845;50.190;19.178;2023-11-19T10:25:24;98325.83;;;3.80;93.85
41102;BME280;26845;50.190;19.178;2023-11-19T10:27:59;98314.48;;;3.85;93.72
41102;BME280;26845;50.190;19.178;2023-11-19T10:30:29;98313.48;;;3.91;93.55
41102;BME280;26845;50.190;19.178;2023-11-19T10:33:05;98317.29;;;4.02;94.00
41102;BME280;26845;50.190;19.178;2023-11-19T10:35:36;98317.27;;;4.11;93.95
41102;BME280;26845;50.190;19.178;2023-11-19T10:38:22;98313.30;;;4.23;94.32
41102;BME280;26845;50.190;19.178;2023-11-19T10:40:48;98317.66;;;4.29;93.75
41102;BME280;26845;50.190;19.178;2023-11-19T10:43:16;98307.38;;;4.23;92.91
41102;BME280;26845;50.190;19.178;2023-11-19T10:45:42;98299.15;;;4.12;92.32
41102;BME280;26845;50.190;19.178;2023-11-19T10:48:09;98293.33;;;4.09;92.72
41102;BME280;26845;50.190;19.178;2023-11-19T10:50:36;98286.42;;;4.06;92.84
41102;BME280;26845;50.190;19.178;2023-11-19T10:53:03;98280.02;;;4.11;93.44
41102;BME280;26845;50.190;19.178;2023-11-19T10:55:30;98275.27;;;4.16;93.11
41102;BME280;26845;50.190;19.178;2023-11-19T10:58:03;98269.31;;;4.16;92.50
41102;BME280;26845;50.190;19.178;2023-11-19T11:00:34;98251.88;;;4.06;92.33
41102;BME280;26845;50.190;19.178;2023-11-19T11:03:05;98251.53;;;4.03;92.64
41102;BME280;26845;50.190;19.178;2023-11-19T11:05:33;98248.59;;;3.95;91.95
41102;BME280;26845;50.190;19.178;2023-11-19T11:08:00;98241.94;;;3.93;91.87
41102;BME280;26845;50.190;19.178;2023-11-19T11:10:26;98246.62;;;3.86;92.23
41102;BME280;26845;50.190;19.178;2023-11-19T11:12:52;98252.27;;;3.87;92.55
41102;BME280;26845;50.190;19.178;2023-11-19T11:15:27;98250.10;;;3.84;92.19
41102;BME280;26845;50.190;19.178;2023-11-19T11:18:00;98242.07;;;3.77;91.93
41102;BME280;26845;50.190;19.178;2023-11-19T11:20:30;98245.94;;;3.63;92.24
41102;BME280;26845;50.190;19.178;2023-11-19T11:34:35;98220.79;;;3.71;93.43
41102;BME280;26845;50.190;19.178;2023-11-19T11:37:17;98225.84;;;3.71;93.54
41102;BME280;26845;50.190;19.178;2023-11-19T11:39:44;98215.69;;;3.69;93.43
41102;BME280;26845;50.190;19.178;2023-11-19T11:44:58;98214.08;;;3.62;93.83
41102;BME280;26845;50.190;19.178;2023-11-19T11:47:25;98213.16;;;3.59;93.61
41102;BME280;26845;50.190;19.178;2023-11-19T11:49:51;98206.23;;;3.52;93.51
41102;BME280;26845;50.190;19.178;2023-11-19T11:52:17;98201.94;;;3.47;93.43
41102;BME280;26845;50.190;19.178;2023-11-19T11:54:44;98202.55;;;3.45;93.78
41102;BME280;26845;50.190;19.178;2023-11-19T11:57:11;98198.36;;;3.44;93.72
41102;BME280;26845;50.190;19.178;2023-11-19T12:02:26;98186.94;;;3.35;93.42
41102;BME280;26845;50.190;19.178;2023-11-19T12:04:52;98180.84;;;3.30;93.76
41102;BME280;26845;50.190;19.178;2023-11-19T12:07:21;98172.51;;;3.28;93.66
41102;BME280;26845;50.190;19.178;2023-11-19T12:09:48;98178.34;;;3.25;93.71
41102;BME280;26845;50.190;19.178;2023-11-19T12:12:17;98179.19;;;3.20;93.48
41102;BME280;26845;50.190;19.178;2023-11-19T12:15:02;98175.48;;;3.14;93.43
41102;BME280;26845;50.190;19.178;2023-11-19T12:17:37;98160.34;;;3.12;93.82
41102;BME280;26845;50.190;19.178;2023-11-19T12:20:04;98149.91;;;3.11;93.85
41102;BME280;26845;50.190;19.178;2023-11-19T12:22:33;98151.08;;;3.11;93.77
41102;BME280;26845;50.190;19.178;2023-11-19T12:24:59;98150.39;;;3.05;93.61
41102;BME280;26845;50.190;19.178;2023-11-19T12:27:25;98141.36;;;3.02;93.66
41102;BME280;26845;50.190;19.178;2023-11-19T12:29:51;98136.86;;;3.01;93.81
41102;BME280;26845;50.190;19.178;2023-11-19T12:32:17;98143.73;;;2.98;93.78
41102;BME280;26845;50.190;19.178;2023-11-19T12:34:44;98135.70;;;2.93;93.85
41102;BME280;26845;50.190;19.178;2023-11-19T12:37:10;98131.45;;;2.95;94.12
41102;BME280;26845;50.190;19.178;2023-11-19T12:39:36;98124.59;;;2.96;94.20
41102;BME280;26845;50.190;19.178;2023-11-19T12:42:02;98122.28;;;2.97;94.14
41102;BME280;26845;50.190;19.178;2023-11-19T12:44:29;98122.27;;;2.99;94.39
41102;BME280;26845;50.190;19.178;2023-11-19T12:47:05;98117.73;;;3.01;94.32
41102;BME280;26845;50.190;19.178;2023-11-19T12:49:36;98114.54;;;3.04;94.44
41102;BME280;26845;50.190;19.178;2023-11-19T12:52:10;98112.79;;;3.05;94.46
41102;BME280;26845;50.190;19.178;2023-11-19T12:54:43;98108.92;;;3.06;94.47
41102;BME280;26845;50.190;19.178;2023-11-19T12:57:09;98101.39;;;3.08;94.62
41102;BME280;26845;50.190;19.178;2023-11-19T12:59:35;98101.31;;;3.10;94.53
41102;BME280;26845;50.190;19.178;2023-11-19T13:02:01;98086.34;;;3.10;94.62
41102;BME280;26845;50.190;19.178;2023-11-19T13:04:31;98076.88;;;3.11;94.70
41102;BME280;26845;50.190;19.178;2023-11-19T13:06:57;98080.15;;;3.14;94.89
41102;BME280;26845;50.190;19.178;2023-11-19T13:10:02;98072.14;;;3.14;94.61
41102;BME280;26845;50.190;19.178;2023-11-19T13:12:28;98075.33;;;3.13;94.73
41102;BME280;26845;50.190;19.178;2023-11-19T13:14:55;98086.59;;;3.12;95.13
41102;BME280;26845;50.190;19.178;2023-11-19T13:17:21;98077.63;;;3.13;95.05